sensor_id;sensor_type;location;lat;lon;timestamp;temperature;humidity
25945;SHT31;13742;49.306;8.636;2023-12-20T00:00:14;5.25;94.73
25945;SHT31;13742;49.306;8.636;2023-12-20T00:01:13;5.22;94.64
25945;SHT31;13742;49.306;8.636;2023-12-20T00:02:14;5.23;94.53
25945;SHT31;13742;49.306;8.636;2023-12-20T00:03:13;5.23;94.58
25945;SHT31;13742;49.306;8.636;2023-12-20T00:04:14;5.21;94.52
25945;SHT31;13742;49.306;8.636;2023-12-20T00:05:14;5.22;94.79
25945;SHT31;13742;49.306;8.636;2023-12-20T00:06:13;5.22;94.71
25945;SHT31;13742;49.306;8.636;2023-12-20T00:07:13;5.23;94.63
25945;SHT31;13742;49.306;8.636;2023-12-20T00:08:14;5.23;94.93
25945;SHT31;13742;49.306;8.636;2023-12-20T00:09:13;5.23;94.80
25945;SHT31;13742;49.306;8.636;2023-12-20T00:10:13;5.23;94.94
25945;SHT31;13742;49.306;8.636;2023-12-20T00:11:13;5.22;94.78
25945;SHT31;13742;49.306;8.636;2023-12-20T00:12:14;5.21;94.82
25945;SHT31;13742;49.306;8.636;2023-12-20T00:13:13;5.22;94.75
25945;SHT31;13742;49.306;8.636;2023-12-20T00:14:13;5.22;94.98
25945;SHT31;13742;49.306;8.636;2023-12-20T00:15:13;5.21;94.92
25945;SHT31;13742;49.306;8.636;2023-12-20T00:16:13;5.23;95.04
25945;SHT31;13742;49.306;8.636;2023-12-20T00:17:13;5.25;94.98
25945;SHT31;13742;49.306;8.636;2023-12-20T00:18:14;5.22;94.90
25945;SHT31;13742;49.306;8.636;2023-12-20T00:19:13;5.25;95.30
25945;SHT31;13742;49.306;8.636;2023-12-20T00:20:14;5.23;95.06
25945;SHT31;13742;49.306;8.636;2023-12-20T00:21:14;5.22;95.08
25945;SHT31;13742;49.306;8.636;2023-12-20T00:22:13;5.23;94.97
25945;SHT31;13742;49.306;8.636;2023-12-20T00:23:13;5.23;95.02
25945;SHT31;13742;49.306;8.636;2023-12-20T00:24:14;5.22;95.13
25945;SHT31;13742;49.306;8.636;2023-12-20T00:25:14;5.23;95.03
25945;SHT31;13742;49.306;8.636;2023-12-20T00:26:13;5.25;94.94
25945;SHT31;13742;49.306;8.636;2023-12-20T00:27:13;5.22;94.96
25945;SHT31;13742;49.306;8.636;2023-12-20T00:28:13;5.21;94.91
25945;SHT31;13742;49.306;8.636;2023-12-20T00:29:13;5.25;95.11
25945;SHT31;13742;49.306;8.636;2023-12-20T00:30:13;5.22;95.05
25945;SHT31;13742;49.306;8.636;2023-12-20T00:31:14;5.23;94.99
25945;SHT31;13742;49.306;8.636;2023-12-20T00:32:14;5.22;94.92
25945;SHT31;13742;49.306;8.636;2023-12-20T00:33:14;5.25;95.04
25945;SHT31;13742;49.306;8.636;2023-12-20T00:34:13;5.23;95.03
25945;SHT31;13742;49.306;8.636;2023-12-20T00:35:14;5.23;95.11
25945;SHT31;13742;49.306;8.636;2023-12-20T00:36:13;5.25;95.31
25945;SHT31;13742;49.306;8.636;2023-12-20T00:37:13;5.23;95.27
25945;SHT31;13742;49.306;8.636;2023-12-20T00:38:14;5.23;95.22
25945;SHT31;13742;49.306;8.636;2023-12-20T00:39:13;5.23;95.19
25945;SHT31;13742;49.306;8.636;2023-12-20T00:40:13;5.23;95.17
25945;SHT31;13742;49.306;8.636;2023-12-20T00:41:13;5.21;95.10
25945;SHT31;13742;49.306;8.636;2023-12-20T00:42:13;5.22;95.18
25945;SHT31;13742;49.306;8.636;2023-12-20T00:43:13;5.22;95.28
25945;SHT31;13742;49.306;8.636;2023-12-20T00:44:13;5.23;95.32
25945;SHT31;13742;49.306;8.636;2023-12-20T00:45:14;5.22;95.49
25945;SHT31;13742;49.306;8.636;2023-12-20T00:46:13;5.23;95.57
25945;SHT31;13742;49.306;8.636;2023-12-20T00:47:13;5.21;95.53
25945;SHT31;13742;49.306;8.636;2023-12-20T00:48:13;5.22;95.55
25945;SHT31;13742;49.306;8.636;2023-12-20T00:49:13;5.25;95.54
25945;SHT31;13742;49.306;8.636;2023-12-20T00:50:14;5.25;95.56
25945;SHT31;13742;49.306;8.636;2023-12-20T00:51:14;5.23;95.57
25945;SHT31;13742;49.306;8.636;2023-12-20T00:52:14;5.23;95.46
25945;SHT31;13742;49.306;8.636;2023-12-20T00:53:13;5.23;95.50
25945;SHT31;13742;49.306;8.636;2023-12-20T00:54:13;5.25;95.61
25945;SHT31;13742;49.306;8.636;2023-12-20T00:55:14;5.22;95.53
25945;SHT31;13742;49.306;8.636;2023-12-20T00:56:13;5.25;95.52
25945;SHT31;13742;49.306;8.636;2023-12-20T00:57:14;5.28;95.57
25945;SHT31;13742;49.306;8.636;2023-12-20T00:58:15;5.23;95.39
25945;SHT31;13742;49.306;8.636;2023-12-20T00:59:16;5.23;95.46
25945;SHT31;13742;49.306;8.636;2023-12-20T01:00:14;5.25;95.75
25945;SHT31;13742;49.306;8.636;2023-12-20T01:01:13;5.28;95.66
25945;SHT31;13742;49.306;8.636;2023-12-20T01:02:13;5.23;95.72
25945;SHT31;13742;49.306;8.636;2023-12-20T01:03:15;5.25;95.50
25945;SHT31;13742;49.306;8.636;2023-12-20T01:04:13;5.26;95.85
25945;SHT31;13742;49.306;8.636;2023-12-20T01:05:14;5.26;95.92
25945;SHT31;13742;49.306;8.636;2023-12-20T01:06:14;5.26;95.88
25945;SHT31;13742;49.306;8.636;2023-12-20T01:07:13;5.26;95.72
25945;SHT31;13742;49.306;8.636;2023-12-20T01:08:14;5.26;95.75
25945;SHT31;13742;49.306;8.636;2023-12-20T01:09:14;5.28;95.85
25945;SHT31;13742;49.306;8.636;2023-12-20T01:10:13;5.23;95.84
25945;SHT31;13742;49.306;8.636;2023-12-20T01:11:13;5.23;95.92
25945;SHT31;13742;49.306;8.636;2023-12-20T01:12:14;5.23;95.86
25945;SHT31;13742;49.306;8.636;2023-12-20T01:13:13;5.25;95.86
25945;SHT31;13742;49.306;8.636;2023-12-20T01:14:13;5.26;95.93
25945;SHT31;13742;49.306;8.636;2023-12-20T01:15:14;5.25;96.09
25945;SHT31;13742;49.306;8.636;2023-12-20T01:16:13;5.25;96.10
25945;SHT31;13742;49.306;8.636;2023-12-20T01:17:14;5.25;96.05
25945;SHT31;13742;49.306;8.636;2023-12-20T01:18:14;5.25;96.03
25945;SHT31;13742;49.306;8.636;2023-12-20T01:19:14;5.25;96.05
25945;SHT31;13742;49.306;8.636;2023-12-20T01:20:13;5.26;96.08
25945;SHT31;13742;49.306;8.636;2023-12-20T01:21:13;5.26;96.06
25945;SHT31;13742;49.306;8.636;2023-12-20T01:22:13;5.26;96.01
25945;SHT31;13742;49.306;8.636;2023-12-20T01:23:13;5.25;95.96
25945;SHT31;13742;49.306;8.636;2023-12-20T01:24:13;5.25;96.02
25945;SHT31;13742;49.306;8.636;2023-12-20T01:25:13;5.25;96.00
25945;SHT31;13742;49.306;8.636;2023-12-20T01:26:14;5.25;95.95
25945;SHT31;13742;49.306;8.636;2023-12-20T01:27:13;5.25;96.04
25945;SHT31;13742;49.306;8.636;2023-12-20T01:28:13;5.23;95.93
25945;SHT31;13742;49.306;8.636;2023-12-20T01:29:14;5.22;96.03
25945;SHT31;13742;49.306;8.636;2023-12-20T01:30:14;5.22;96.16
25945;SHT31;13742;49.306;8.636;2023-12-20T01:31:13;5.23;96.15
25945;SHT31;13742;49.306;8.636;2023-12-20T01:32:13;5.25;96.04
25945;SHT31;13742;49.306;8.636;2023-12-20T01:33:13;5.25;96.08
25945;SHT31;13742;49.306;8.636;2023-12-20T01:34:13;5.25;96.07
25945;SHT31;13742;49.306;8.636;2023-12-20T01:35:13;5.25;96.08
25945;SHT31;13742;49.306;8.636;2023-12-20T01:36:13;5.25;96.06
25945;SHT31;13742;49.306;8.636;2023-12-20T01:37:14;5.23;96.10
25945;SHT31;13742;49.306;8.636;2023-12-20T01:38:13;5.22;96.06
25945;SHT31;13742;49.306;8.636;2023-12-20T01:39:13;5.25;96.05
25945;SHT31;13742;49.306;8.636;2023-12-20T01:40:14;5.25;96.15
25945;SHT31;13742;49.306;8.636;2023-12-20T01:41:13;5.22;96.10
25945;SHT31;13742;49.306;8.636;2023-12-20T01:42:13;5.26;96.13
25945;SHT31;13742;49.306;8.636;2023-12-20T01:43:13;5.25;96.12
25945;SHT31;13742;49.306;8.636;2023-12-20T01:44:13;5.23;96.12
25945;SHT31;13742;49.306;8.636;2023-12-20T01:45:14;5.23;96.17
25945;SHT31;13742;49.306;8.636;2023-12-20T01:46:14;5.25;96.29
25945;SHT31;13742;49.306;8.636;2023-12-20T01:47:14;5.25;96.25
25945;SHT31;13742;49.306;8.636;2023-12-20T01:48:14;5.23;96.21
25945;SHT31;13742;49.306;8.636;2023-12-20T01:49:14;5.25;96.24
25945;SHT31;13742;49.306;8.636;2023-12-20T01:50:14;5.23;96.13
25945;SHT31;13742;49.306;8.636;2023-12-20T01:51:14;5.25;96.29
25945;SHT31;13742;49.306;8.636;2023-12-20T01:52:14;5.26;96.25
25945;SHT31;13742;49.306;8.636;2023-12-20T01:53:14;5.29;96.28
25945;SHT31;13742;49.306;8.636;2023-12-20T01:54:13;5.25;96.19
25945;SHT31;13742;49.306;8.636;2023-12-20T01:55:15;5.25;96.26
25945;SHT31;13742;49.306;8.636;2023-12-20T01:56:14;5.25;96.21
25945;SHT31;13742;49.306;8.636;2023-12-20T01:57:13;5.26;96.16
25945;SHT31;13742;49.306;8.636;2023-12-20T01:58:14;5.25;96.18
25945;SHT31;13742;49.306;8.636;2023-12-20T01:59:13;5.25;96.30
25945;SHT31;13742;49.306;8.636;2023-12-20T02:00:14;5.25;96.25
25945;SHT31;13742;49.306;8.636;2023-12-20T02:01:14;5.26;96.19
25945;SHT31;13742;49.306;8.636;2023-12-20T02:02:14;5.25;96.27
25945;SHT31;13742;49.306;8.636;2023-12-20T02:03:14;5.28;96.28
25945;SHT31;13742;49.306;8.636;2023-12-20T02:04:14;5.26;96.25
25945;SHT31;13742;49.306;8.636;2023-12-20T02:05:13;5.28;96.24
25945;SHT31;13742;49.306;8.636;2023-12-20T02:06:14;5.26;96.27
25945;SHT31;13742;49.306;8.636;2023-12-20T02:07:13;5.28;96.29
25945;SHT31;13742;49.306;8.636;2023-12-20T02:08:13;5.29;96.21
25945;SHT31;13742;49.306;8.636;2023-12-20T02:09:14;5.28;96.23
25945;SHT31;13742;49.306;8.636;2023-12-20T02:10:13;5.28;96.26
25945;SHT31;13742;49.306;8.636;2023-12-20T02:11:13;5.28;96.36
25945;SHT31;13742;49.306;8.636;2023-12-20T02:12:13;5.26;96.21
25945;SHT31;13742;49.306;8.636;2023-12-20T02:13:13;5.26;96.25
25945;SHT31;13742;49.306;8.636;2023-12-20T02:14:13;5.26;96.31
25945;SHT31;13742;49.306;8.636;2023-12-20T02:15:13;5.25;96.30
25945;SHT31;13742;49.306;8.636;2023-12-20T02:16:13;5.28;96.21
25945;SHT31;13742;49.306;8.636;2023-12-20T02:17:14;5.28;96.35
25945;SHT31;13742;49.306;8.636;2023-12-20T02:18:16;5.28;96.32
25945;SHT31;13742;49.306;8.636;2023-12-20T02:19:14;5.29;96.39
25945;SHT31;13742;49.306;8.636;2023-12-20T02:20:13;5.29;96.39
25945;SHT31;13742;49.306;8.636;2023-12-20T02:21:14;5.28;96.31
25945;SHT31;13742;49.306;8.636;2023-12-20T02:22:13;5.28;96.33
25945;SHT31;13742;49.306;8.636;2023-12-20T02:23:13;5.31;96.35
25945;SHT31;13742;49.306;8.636;2023-12-20T02:24:13;5.29;96.34
25945;SHT31;13742;49.306;8.636;2023-12-20T02:25:13;5.29;96.32
25945;SHT31;13742;49.306;8.636;2023-12-20T02:26:14;5.29;96.27
25945;SHT31;13742;49.306;8.636;2023-12-20T02:27:15;5.29;96.31
25945;SHT31;13742;49.306;8.636;2023-12-20T02:28:14;5.29;96.36
25945;SHT31;13742;49.306;8.636;2023-12-20T02:29:13;5.31;96.35
25945;SHT31;13742;49.306;8.636;2023-12-20T02:30:14;5.31;96.27
25945;SHT31;13742;49.306;8.636;2023-12-20T02:31:13;5.31;96.34
25945;SHT31;13742;49.306;8.636;2023-12-20T02:32:13;5.31;96.36
25945;SHT31;13742;49.306;8.636;2023-12-20T02:33:14;5.32;96.30
25945;SHT31;13742;49.306;8.636;2023-12-20T02:34:13;5.29;96.30
25945;SHT31;13742;49.306;8.636;2023-12-20T02:35:13;5.29;96.34
25945;SHT31;13742;49.306;8.636;2023-12-20T02:36:13;5.29;96.36
25945;SHT31;13742;49.306;8.636;2023-12-20T02:37:14;5.28;96.40
25945;SHT31;13742;49.306;8.636;2023-12-20T02:38:13;5.32;96.56
25945;SHT31;13742;49.306;8.636;2023-12-20T02:39:14;5.32;96.56
25945;SHT31;13742;49.306;8.636;2023-12-20T02:40:13;5.32;96.36
25945;SHT31;13742;49.306;8.636;2023-12-20T02:41:16;5.29;96.34
25945;SHT31;13742;49.306;8.636;2023-12-20T02:42:13;5.33;96.49
25945;SHT31;13742;49.306;8.636;2023-12-20T02:43:13;5.32;96.38
25945;SHT31;13742;49.306;8.636;2023-12-20T02:44:14;5.29;96.29
25945;SHT31;13742;49.306;8.636;2023-12-20T02:45:13;5.31;96.25
25945;SHT31;13742;49.306;8.636;2023-12-20T02:46:15;5.29;96.37
25945;SHT31;13742;49.306;8.636;2023-12-20T02:47:13;5.31;96.34
25945;SHT31;13742;49.306;8.636;2023-12-20T02:48:13;5.28;96.32
25945;SHT31;13742;49.306;8.636;2023-12-20T02:49:13;5.29;96.32
25945;SHT31;13742;49.306;8.636;2023-12-20T02:50:13;5.31;96.40
25945;SHT31;13742;49.306;8.636;2023-12-20T02:51:13;5.31;96.36
25945;SHT31;13742;49.306;8.636;2023-12-20T02:52:13;5.32;96.56
25945;SHT31;13742;49.306;8.636;2023-12-20T02:53:13;5.32;96.64
25945;SHT31;13742;49.306;8.636;2023-12-20T02:54:13;5.33;96.64
25945;SHT31;13742;49.306;8.636;2023-12-20T02:55:13;5.32;96.54
25945;SHT31;13742;49.306;8.636;2023-12-20T02:56:14;5.35;96.57
25945;SHT31;13742;49.306;8.636;2023-12-20T02:57:13;5.31;96.47
25945;SHT31;13742;49.306;8.636;2023-12-20T02:58:13;5.31;96.42
25945;SHT31;13742;49.306;8.636;2023-12-20T02:59:13;5.31;96.53
25945;SHT31;13742;49.306;8.636;2023-12-20T03:00:14;5.32;96.46
25945;SHT31;13742;49.306;8.636;2023-12-20T03:01:14;5.32;96.49
25945;SHT31;13742;49.306;8.636;2023-12-20T03:02:13;5.32;96.45
25945;SHT31;13742;49.306;8.636;2023-12-20T03:03:13;5.31;96.36
25945;SHT31;13742;49.306;8.636;2023-12-20T03:04:13;5.33;96.45
25945;SHT31;13742;49.306;8.636;2023-12-20T03:05:13;5.33;96.51
25945;SHT31;13742;49.306;8.636;2023-12-20T03:06:17;5.32;96.45
25945;SHT31;13742;49.306;8.636;2023-12-20T03:07:13;5.31;96.42
25945;SHT31;13742;49.306;8.636;2023-12-20T03:08:13;5.32;96.44
25945;SHT31;13742;49.306;8.636;2023-12-20T03:09:13;5.32;96.50
25945;SHT31;13742;49.306;8.636;2023-12-20T03:10:13;5.31;96.53
25945;SHT31;13742;49.306;8.636;2023-12-20T03:11:13;5.33;96.55
25945;SHT31;13742;49.306;8.636;2023-12-20T03:12:13;5.32;96.47
25945;SHT31;13742;49.306;8.636;2023-12-20T03:13:14;5.33;96.51
25945;SHT31;13742;49.306;8.636;2023-12-20T03:14:13;5.32;96.46
25945;SHT31;13742;49.306;8.636;2023-12-20T03:15:13;5.33;96.43
25945;SHT31;13742;49.306;8.636;2023-12-20T03:16:13;5.33;96.43
25945;SHT31;13742;49.306;8.636;2023-12-20T03:17:13;5.32;96.44
25945;SHT31;13742;49.306;8.636;2023-12-20T03:18:13;5.35;96.45
25945;SHT31;13742;49.306;8.636;2023-12-20T03:19:14;5.33;96.59
25945;SHT31;13742;49.306;8.636;2023-12-20T03:20:13;5.35;96.57
25945;SHT31;13742;49.306;8.636;2023-12-20T03:21:13;5.33;96.59
25945;SHT31;13742;49.306;8.636;2023-12-20T03:22:13;5.32;96.56
25945;SHT31;13742;49.306;8.636;2023-12-20T03:23:13;5.31;96.61
25945;SHT31;13742;49.306;8.636;2023-12-20T03:24:13;5.33;96.59
25945;SHT31;13742;49.306;8.636;2023-12-20T03:25:13;5.32;96.56
25945;SHT31;13742;49.306;8.636;2023-12-20T03:26:14;5.32;96.50
25945;SHT31;13742;49.306;8.636;2023-12-20T03:27:13;5.31;96.59
25945;SHT31;13742;49.306;8.636;2023-12-20T03:28:14;5.35;96.62
25945;SHT31;13742;49.306;8.636;2023-12-20T03:29:13;5.35;96.62
25945;SHT31;13742;49.306;8.636;2023-12-20T03:30:14;5.33;96.61
25945;SHT31;13742;49.306;8.636;2023-12-20T03:31:13;5.33;96.62
25945;SHT31;13742;49.306;8.636;2023-12-20T03:32:13;5.32;96.64
25945;SHT31;13742;49.306;8.636;2023-12-20T03:33:13;5.33;96.63
25945;SHT31;13742;49.306;8.636;2023-12-20T03:34:13;5.33;96.54
25945;SHT31;13742;49.306;8.636;2023-12-20T03:35:13;5.31;96.64
25945;SHT31;13742;49.306;8.636;2023-12-20T03:36:13;5.33;96.64
25945;SHT31;13742;49.306;8.636;2023-12-20T03:37:13;5.32;96.60
25945;SHT31;13742;49.306;8.636;2023-12-20T03:38:13;5.35;96.57
25945;SHT31;13742;49.306;8.636;2023-12-20T03:39:13;5.33;96.57
25945;SHT31;13742;49.306;8.636;2023-12-20T03:40:13;5.32;96.65
25945;SHT31;13742;49.306;8.636;2023-12-20T03:41:13;5.32;96.58
25945;SHT31;13742;49.306;8.636;2023-12-20T03:42:13;5.33;96.63
25945;SHT31;13742;49.306;8.636;2023-12-20T03:43:13;5.35;96.65
25945;SHT31;13742;49.306;8.636;2023-12-20T03:44:13;5.32;96.64
25945;SHT31;13742;49.306;8.636;2023-12-20T03:45:13;5.32;96.66
25945;SHT31;13742;49.306;8.636;2023-12-20T03:46:13;5.36;96.59
25945;SHT31;13742;49.306;8.636;2023-12-20T03:47:13;5.33;96.62
25945;SHT31;13742;49.306;8.636;2023-12-20T03:48:13;5.33;96.70
25945;SHT31;13742;49.306;8.636;2023-12-20T03:49:13;5.32;96.65
25945;SHT31;13742;49.306;8.636;2023-12-20T03:50:13;5.35;96.67
25945;SHT31;13742;49.306;8.636;2023-12-20T03:51:13;5.35;96.64
25945;SHT31;13742;49.306;8.636;2023-12-20T03:52:13;5.35;96.64
25945;SHT31;13742;49.306;8.636;2023-12-20T03:53:13;5.33;96.68
25945;SHT31;13742;49.306;8.636;2023-12-20T03:54:13;5.35;96.60
25945;SHT31;13742;49.306;8.636;2023-12-20T03:55:13;5.36;96.66
25945;SHT31;13742;49.306;8.636;2023-12-20T03:56:13;5.36;96.73
25945;SHT31;13742;49.306;8.636;2023-12-20T03:57:13;5.35;96.77
25945;SHT31;13742;49.306;8.636;2023-12-20T03:58:13;5.35;96.78
25945;SHT31;13742;49.306;8.636;2023-12-20T03:59:14;5.35;96.71
25945;SHT31;13742;49.306;8.636;2023-12-20T04:00:14;5.35;96.67
25945;SHT31;13742;49.306;8.636;2023-12-20T04:01:13;5.33;96.64
25945;SHT31;13742;49.306;8.636;2023-12-20T04:02:13;5.35;96.70
25945;SHT31;13742;49.306;8.636;2023-12-20T04:03:14;5.35;96.77
25945;SHT31;13742;49.306;8.636;2023-12-20T04:04:13;5.38;96.77
25945;SHT31;13742;49.306;8.636;2023-12-20T04:05:13;5.35;96.74
25945;SHT31;13742;49.306;8.636;2023-12-20T04:06:17;5.38;96.82
25945;SHT31;13742;49.306;8.636;2023-12-20T04:07:13;5.38;96.82
25945;SHT31;13742;49.306;8.636;2023-12-20T04:08:13;5.38;96.80
25945;SHT31;13742;49.306;8.636;2023-12-20T04:09:13;5.36;96.70
25945;SHT31;13742;49.306;8.636;2023-12-20T04:10:13;5.36;96.70
25945;SHT31;13742;49.306;8.636;2023-12-20T04:11:13;5.35;96.73
25945;SHT31;13742;49.306;8.636;2023-12-20T04:12:13;5.39;96.78
25945;SHT31;13742;49.306;8.636;2023-12-20T04:13:13;5.36;96.71
25945;SHT31;13742;49.306;8.636;2023-12-20T04:14:14;5.36;96.72
25945;SHT31;13742;49.306;8.636;2023-12-20T04:15:13;5.36;96.65
25945;SHT31;13742;49.306;8.636;2023-12-20T04:16:13;5.36;96.68
25945;SHT31;13742;49.306;8.636;2023-12-20T04:17:15;5.36;96.65
25945;SHT31;13742;49.306;8.636;2023-12-20T04:18:13;5.39;96.71
25945;SHT31;13742;49.306;8.636;2023-12-20T04:19:13;5.39;96.75
25945;SHT31;13742;49.306;8.636;2023-12-20T04:20:13;5.39;96.66
25945;SHT31;13742;49.306;8.636;2023-12-20T04:21:13;5.38;96.69
25945;SHT31;13742;49.306;8.636;2023-12-20T04:22:13;5.39;96.65
25945;SHT31;13742;49.306;8.636;2023-12-20T04:23:13;5.39;96.63
25945;SHT31;13742;49.306;8.636;2023-12-20T04:24:13;5.36;96.61
25945;SHT31;13742;49.306;8.636;2023-12-20T04:25:13;5.39;96.73
25945;SHT31;13742;49.306;8.636;2023-12-20T04:26:13;5.36;96.68
25945;SHT31;13742;49.306;8.636;2023-12-20T04:27:13;5.38;96.66
25945;SHT31;13742;49.306;8.636;2023-12-20T04:28:13;5.38;96.67
25945;SHT31;13742;49.306;8.636;2023-12-20T04:29:13;5.39;96.70
25945;SHT31;13742;49.306;8.636;2023-12-20T04:30:13;5.41;96.72
25945;SHT31;13742;49.306;8.636;2023-12-20T04:31:13;5.36;96.75
25945;SHT31;13742;49.306;8.636;2023-12-20T04:32:13;5.38;96.71
25945;SHT31;13742;49.306;8.636;2023-12-20T04:33:13;5.41;96.78
25945;SHT31;13742;49.306;8.636;2023-12-20T04:34:13;5.41;96.84
25945;SHT31;13742;49.306;8.636;2023-12-20T04:35:13;5.39;96.75
25945;SHT31;13742;49.306;8.636;2023-12-20T04:36:13;5.41;96.83
25945;SHT31;13742;49.306;8.636;2023-12-20T04:37:13;5.42;96.73
25945;SHT31;13742;49.306;8.636;2023-12-20T04:38:13;5.41;96.72
25945;SHT31;13742;49.306;8.636;2023-12-20T04:39:14;5.41;96.73
25945;SHT31;13742;49.306;8.636;2023-12-20T04:40:13;5.42;96.74
25945;SHT31;13742;49.306;8.636;2023-12-20T04:41:16;5.39;96.69
25945;SHT31;13742;49.306;8.636;2023-12-20T04:42:13;5.41;96.72
25945;SHT31;13742;49.306;8.636;2023-12-20T04:43:13;5.39;96.66
25945;SHT31;13742;49.306;8.636;2023-12-20T04:44:13;5.39;96.70
25945;SHT31;13742;49.306;8.636;2023-12-20T04:45:15;5.38;96.65
25945;SHT31;13742;49.306;8.636;2023-12-20T04:46:13;5.39;96.68
25945;SHT31;13742;49.306;8.636;2023-12-20T04:47:13;5.42;96.74
25945;SHT31;13742;49.306;8.636;2023-12-20T04:48:13;5.43;96.81
25945;SHT31;13742;49.306;8.636;2023-12-20T04:49:13;5.42;96.77
25945;SHT31;13742;49.306;8.636;2023-12-20T04:50:14;5.42;96.76
25945;SHT31;13742;49.306;8.636;2023-12-20T04:51:13;5.45;96.78
25945;SHT31;13742;49.306;8.636;2023-12-20T04:52:13;5.45;96.84
25945;SHT31;13742;49.306;8.636;2023-12-20T04:53:13;5.43;96.78
25945;SHT31;13742;49.306;8.636;2023-12-20T04:54:13;5.43;96.79
25945;SHT31;13742;49.306;8.636;2023-12-20T04:55:14;5.42;96.73
25945;SHT31;13742;49.306;8.636;2023-12-20T04:56:13;5.41;96.75
25945;SHT31;13742;49.306;8.636;2023-12-20T04:57:13;5.43;96.77
25945;SHT31;13742;49.306;8.636;2023-12-20T04:58:13;5.43;96.77
25945;SHT31;13742;49.306;8.636;2023-12-20T04:59:13;5.41;96.69
25945;SHT31;13742;49.306;8.636;2023-12-20T05:00:15;5.42;96.76
25945;SHT31;13742;49.306;8.636;2023-12-20T05:01:14;5.43;96.81
25945;SHT31;13742;49.306;8.636;2023-12-20T05:02:13;5.42;96.83
25945;SHT31;13742;49.306;8.636;2023-12-20T05:03:13;5.42;96.69
25945;SHT31;13742;49.306;8.636;2023-12-20T05:04:13;5.41;96.81
25945;SHT31;13742;49.306;8.636;2023-12-20T05:05:15;5.41;96.77
25945;SHT31;13742;49.306;8.636;2023-12-20T05:06:13;5.43;96.85
25945;SHT31;13742;49.306;8.636;2023-12-20T05:07:13;5.43;96.82
25945;SHT31;13742;49.306;8.636;2023-12-20T05:08:13;5.42;96.79
25945;SHT31;13742;49.306;8.636;2023-12-20T05:09:13;5.42;96.75
25945;SHT31;13742;49.306;8.636;2023-12-20T05:10:13;5.42;96.78
25945;SHT31;13742;49.306;8.636;2023-12-20T05:11:15;5.45;96.75
25945;SHT31;13742;49.306;8.636;2023-12-20T05:12:13;5.46;96.78
25945;SHT31;13742;49.306;8.636;2023-12-20T05:13:13;5.45;96.75
25945;SHT31;13742;49.306;8.636;2023-12-20T05:14:13;5.42;96.71
25945;SHT31;13742;49.306;8.636;2023-12-20T05:15:13;5.45;96.69
25945;SHT31;13742;49.306;8.636;2023-12-20T05:16:14;5.46;96.64
25945;SHT31;13742;49.306;8.636;2023-12-20T05:17:13;5.47;96.58
25945;SHT31;13742;49.306;8.636;2023-12-20T05:18:14;5.45;96.55
25945;SHT31;13742;49.306;8.636;2023-12-20T05:19:14;5.52;96.54
25945;SHT31;13742;49.306;8.636;2023-12-20T05:20:13;5.50;96.39
25945;SHT31;13742;49.306;8.636;2023-12-20T05:21:13;5.50;96.32
25945;SHT31;13742;49.306;8.636;2023-12-20T05:22:13;5.50;96.23
25945;SHT31;13742;49.306;8.636;2023-12-20T05:23:14;5.52;96.26
25945;SHT31;13742;49.306;8.636;2023-12-20T05:24:13;5.54;96.31
25945;SHT31;13742;49.306;8.636;2023-12-20T05:25:13;5.54;96.28
25945;SHT31;13742;49.306;8.636;2023-12-20T05:26:13;5.53;96.30
25945;SHT31;13742;49.306;8.636;2023-12-20T05:27:13;5.54;96.36
25945;SHT31;13742;49.306;8.636;2023-12-20T05:28:13;5.56;96.30
25945;SHT31;13742;49.306;8.636;2023-12-20T05:29:13;5.54;96.26
25945;SHT31;13742;49.306;8.636;2023-12-20T05:30:14;5.54;96.25
25945;SHT31;13742;49.306;8.636;2023-12-20T05:31:13;5.54;96.25
25945;SHT31;13742;49.306;8.636;2023-12-20T05:32:13;5.54;96.28
25945;SHT31;13742;49.306;8.636;2023-12-20T05:33:13;5.56;96.28
25945;SHT31;13742;49.306;8.636;2023-12-20T05:34:13;5.56;96.33
25945;SHT31;13742;49.306;8.636;2023-12-20T05:35:13;5.54;96.28
25945;SHT31;13742;49.306;8.636;2023-12-20T05:36:15;5.54;96.24
25945;SHT31;13742;49.306;8.636;2023-12-20T05:37:13;5.56;96.26
25945;SHT31;13742;49.306;8.636;2023-12-20T05:38:13;5.54;96.24
25945;SHT31;13742;49.306;8.636;2023-12-20T05:39:13;5.56;96.21
25945;SHT31;13742;49.306;8.636;2023-12-20T05:40:13;5.54;96.22
25945;SHT31;13742;49.306;8.636;2023-12-20T05:41:13;5.56;96.28
25945;SHT31;13742;49.306;8.636;2023-12-20T05:42:13;5.56;96.21
25945;SHT31;13742;49.306;8.636;2023-12-20T05:43:13;5.58;96.28
25945;SHT31;13742;49.306;8.636;2023-12-20T05:44:13;5.56;96.30
25945;SHT31;13742;49.306;8.636;2023-12-20T05:45:14;5.53;96.25
25945;SHT31;13742;49.306;8.636;2023-12-20T05:46:13;5.56;96.32
25945;SHT31;13742;49.306;8.636;2023-12-20T05:47:13;5.54;96.26
25945;SHT31;13742;49.306;8.636;2023-12-20T05:48:13;5.54;96.30
25945;SHT31;13742;49.306;8.636;2023-12-20T05:49:14;5.56;96.32
25945;SHT31;13742;49.306;8.636;2023-12-20T05:50:13;5.56;96.37
25945;SHT31;13742;49.306;8.636;2023-12-20T05:51:13;5.56;96.38
25945;SHT31;13742;49.306;8.636;2023-12-20T05:52:13;5.56;96.35
25945;SHT31;13742;49.306;8.636;2023-12-20T05:53:13;5.53;96.35
25945;SHT31;13742;49.306;8.636;2023-12-20T05:54:13;5.53;96.46
25945;SHT31;13742;49.306;8.636;2023-12-20T05:55:13;5.56;96.52
25945;SHT31;13742;49.306;8.636;2023-12-20T05:56:13;5.56;96.53
25945;SHT31;13742;49.306;8.636;2023-12-20T05:57:13;5.54;96.53
25945;SHT31;13742;49.306;8.636;2023-12-20T05:58:13;5.53;96.48
25945;SHT31;13742;49.306;8.636;2023-12-20T05:59:14;5.53;96.53
25945;SHT31;13742;49.306;8.636;2023-12-20T06:00:14;5.56;96.54
25945;SHT31;13742;49.306;8.636;2023-12-20T06:01:14;5.54;96.58
25945;SHT31;13742;49.306;8.636;2023-12-20T06:02:13;5.53;96.73
25945;SHT31;13742;49.306;8.636;2023-12-20T06:03:13;5.56;96.71
25945;SHT31;13742;49.306;8.636;2023-12-20T06:04:13;5.53;96.65
25945;SHT31;13742;49.306;8.636;2023-12-20T06:05:13;5.58;96.64
25945;SHT31;13742;49.306;8.636;2023-12-20T06:06:13;5.56;96.61
25945;SHT31;13742;49.306;8.636;2023-12-20T06:07:14;5.54;96.58
25945;SHT31;13742;49.306;8.636;2023-12-20T06:08:13;5.53;96.63
25945;SHT31;13742;49.306;8.636;2023-12-20T06:09:15;5.54;96.66
25945;SHT31;13742;49.306;8.636;2023-12-20T06:10:14;5.56;96.62
25945;SHT31;13742;49.306;8.636;2023-12-20T06:11:14;5.56;96.66
25945;SHT31;13742;49.306;8.636;2023-12-20T06:12:13;5.56;96.63
25945;SHT31;13742;49.306;8.636;2023-12-20T06:13:14;5.59;96.62
25945;SHT31;13742;49.306;8.636;2023-12-20T06:14:13;5.56;96.59
25945;SHT31;13742;49.306;8.636;2023-12-20T06:15:13;5.56;96.53
25945;SHT31;13742;49.306;8.636;2023-12-20T06:16:13;5.56;96.59
25945;SHT31;13742;49.306;8.636;2023-12-20T06:17:13;5.56;96.59
25945;SHT31;13742;49.306;8.636;2023-12-20T06:18:13;5.56;96.54
25945;SHT31;13742;49.306;8.636;2023-12-20T06:19:14;5.54;96.53
25945;SHT31;13742;49.306;8.636;2023-12-20T06:20:13;5.56;96.47
25945;SHT31;13742;49.306;8.636;2023-12-20T06:21:14;5.56;96.56
25945;SHT31;13742;49.306;8.636;2023-12-20T06:22:14;5.58;96.61
25945;SHT31;13742;49.306;8.636;2023-12-20T06:23:13;5.58;96.53
25945;SHT31;13742;49.306;8.636;2023-12-20T06:24:13;5.56;96.57